Time;durP1;ratioP1;P1;durP2;ratioP2;P2;SDS_P1;SDS_P2;PMS_P1;PMS_P2;Temp;Humidity;BMP_temperature;BMP_pressure;BME280_temperature;BME280_humidity;BME280_pressure;Samples;Min_cycle;Max_cycle;Signal;HPM_P1;HPM_P2
2020/12/20 00:02:08;;;;;;;50.60;20.40;;;2.40;99.90;;;;;;5041406;28;20202;-68
2020/12/20 00:04:35;;;;;;;46.83;19.70;;;2.40;99.90;;;;;;5037310;28;20214;-68
2020/12/20 00:07:02;;;;;;;49.67;19.63;;;2.30;99.90;;;;;;5030939;28;20693;-68
2020/12/20 00:09:28;;;;;;;49.93;19.40;;;2.30;99.90;;;;;;5031123;28;20257;-68
2020/12/20 00:11:56;;;;;;;56.07;21.37;;;2.20;99.90;;;;;;5063790;28;20849;-68
2020/12/20 00:14:29;;;;;;;51.40;18.90;;;2.10;99.90;;;;;;5061693;28;20217;-68
2020/12/20 00:17:01;;;;;;;47.53;18.47;;;2.00;99.90;;;;;;5057588;28;20766;-68
2020/12/20 00:19:28;;;;;;;44.77;16.17;;;1.90;99.90;;;;;;5069290;28;20212;-68
2020/12/20 00:21:58;;;;;;;37.20;16.27;;;1.80;99.90;;;;;;5050769;28;20237;-68
2020/12/20 00:24:25;;;;;;;42.07;16.20;;;1.70;99.90;;;;;;5040467;28;20202;-68
2020/12/20 00:26:53;;;;;;;46.63;18.10;;;1.70;99.90;;;;;;5064616;28;20334;-69
2020/12/20 00:29:22;;;;;;;40.63;16.00;;;1.70;99.90;;;;;;5066323;28;20201;-68
2020/12/20 00:31:49;;;;;;;36.43;16.97;;;1.70;99.90;;;;;;5068755;28;20950;-68
2020/12/20 00:34:16;;;;;;;43.00;18.40;;;1.70;99.90;;;;;;5077110;28;20577;-68
2020/12/20 00:36:45;;;;;;;50.13;18.73;;;1.70;99.90;;;;;;5086587;28;20978;-68
2020/12/20 00:39:13;;;;;;;45.00;17.90;;;1.70;99.90;;;;;;5085759;28;20224;-68
2020/12/20 00:41:40;;;;;;;43.23;17.87;;;1.70;99.90;;;;;;5067077;28;20205;-69
2020/12/20 00:44:07;;;;;;;49.17;17.83;;;1.80;99.90;;;;;;5069230;28;20216;-68
2020/12/20 00:46:35;;;;;;;45.27;16.90;;;1.80;99.90;;;;;;5069300;28;20205;-68
2020/12/20 00:49:02;;;;;;;47.73;19.50;;;1.90;99.90;;;;;;5061454;28;20720;-68
2020/12/20 00:51:32;;;;;;;45.67;19.07;;;1.90;99.90;;;;;;5029943;28;20233;-69
2020/12/20 00:53:59;;;;;;;49.87;18.20;;;1.90;99.90;;;;;;5037786;28;20336;-68
2020/12/20 00:56:27;;;;;;;45.10;17.23;;;1.90;99.90;;;;;;5048679;28;20219;-68
2020/12/20 00:58:54;;;;;;;44.80;19.00;;;2.00;99.90;;;;;;5018157;28;20241;-69
2020/12/20 01:01:21;;;;;;;46.27;17.83;;;2.00;99.90;;;;;;5003140;28;20280;-68
2020/12/20 01:03:48;;;;;;;53.53;21.90;;;2.00;99.90;;;;;;4998047;28;20243;-69
2020/12/20 01:06:17;;;;;;;57.60;21.23;;;2.00;99.90;;;;;;4991232;28;20588;-68
2020/12/20 01:08:46;;;;;;;45.50;18.80;;;2.00;99.90;;;;;;4974698;28;20223;-68
2020/12/20 01:11:13;;;;;;;41.67;18.23;;;2.00;99.90;;;;;;5007047;28;20298;-69
2020/12/20 01:13:44;;;;;;;49.23;19.47;;;2.00;99.90;;;;;;4984335;28;20672;-68
2020/12/20 01:16:14;;;;;;;43.60;18.97;;;2.00;99.90;;;;;;4967143;28;20205;-68
2020/12/20 01:18:41;;;;;;;54.07;21.97;;;2.00;99.90;;;;;;4966897;28;20231;-68
2020/12/20 01:21:08;;;;;;;46.83;19.60;;;2.00;99.90;;;;;;4968048;28;20212;-69
2020/12/20 01:23:35;;;;;;;39.83;16.70;;;2.00;99.90;;;;;;4954169;28;20216;-68
2020/12/20 01:26:02;;;;;;;44.27;18.63;;;2.10;99.90;;;;;;4963742;28;20208;-68
2020/12/20 01:28:29;;;;;;;40.57;17.80;;;2.10;99.90;;;;;;4983369;28;20835;-68
2020/12/20 01:30:57;;;;;;;39.87;16.90;;;2.10;99.90;;;;;;4989184;28;20204;-68
2020/12/20 01:33:42;;;;;;;37.40;15.13;;;2.20;99.90;;;;;;4996282;28;20232;-68
2020/12/20 01:36:13;;;;;;;41.67;17.13;;;2.20;99.90;;;;;;4989905;28;20254;-69
2020/12/20 01:38:45;;;;;;;36.57;16.03;;;2.20;99.90;;;;;;4998610;28;20277;-69
2020/12/20 01:41:13;;;;;;;38.43;15.97;;;2.30;99.90;;;;;;4994409;28;20705;-68
2020/12/20 01:43:43;;;;;;;36.87;16.30;;;2.30;99.90;;;;;;4972268;28;20322;-69
2020/12/20 01:46:13;;;;;;;43.53;18.17;;;2.40;99.90;;;;;;4989091;28;20551;-68
2020/12/20 01:48:40;;;;;;;45.00;17.70;;;2.40;99.90;;;;;;4970383;28;20375;-68
2020/12/20 01:51:07;;;;;;;43.50;18.57;;;2.30;99.90;;;;;;4971393;28;20207;-68
2020/12/20 01:53:35;;;;;;;48.67;20.23;;;2.40;99.90;;;;;;4971335;28;20244;-68
2020/12/20 01:56:03;;;;;;;51.40;19.80;;;2.50;99.90;;;;;;4985484;28;20208;-69
2020/12/20 01:58:37;;;;;;;43.00;17.87;;;2.50;99.90;;;;;;4968860;28;20228;-68
2020/12/20 02:01:11;;;;;;;48.67;18.90;;;2.50;99.90;;;;;;4937707;28;20232;-69
2020/12/20 02:03:49;;;;;;;52.63;19.03;;;2.50;99.90;;;;;;4952497;28;20212;-68
2020/12/20 02:06:26;;;;;;;47.67;17.50;;;2.60;99.90;;;;;;4923152;29;20227;-68
2020/12/20 02:08:58;;;;;;;50.77;19.03;;;2.60;99.90;;;;;;4950064;29;20273;-68
2020/12/20 02:11:26;;;;;;;51.13;19.60;;;2.60;99.90;;;;;;4956815;28;20199;-68
2020/12/20 02:13:55;;;;;;;52.90;19.90;;;2.60;99.90;;;;;;4977284;28;20294;-69
2020/12/20 02:16:32;;;;;;;45.33;18.00;;;2.70;99.90;;;;;;4967080;28;20203;-68
2020/12/20 02:18:59;;;;;;;45.97;18.73;;;2.70;99.90;;;;;;4979169;28;20225;-69
2020/12/20 02:21:26;;;;;;;42.07;17.80;;;2.70;99.90;;;;;;4944904;29;20684;-68
2020/12/20 02:24:02;;;;;;;39.17;16.13;;;2.70;99.90;;;;;;4935596;28;20217;-69
2020/12/20 02:26:39;;;;;;;39.90;16.67;;;2.80;99.90;;;;;;4930261;29;20353;-68
2020/12/20 02:29:07;;;;;;;37.53;15.90;;;2.80;99.90;;;;;;4996006;28;20203;-68
2020/12/20 02:31:34;;;;;;;41.60;17.23;;;2.90;99.90;;;;;;5000982;28;20212;-69
2020/12/20 02:34:04;;;;;;;43.57;16.93;;;2.90;99.90;;;;;;4990327;28;20207;-68
2020/12/20 02:36:32;;;;;;;46.50;18.47;;;2.90;99.90;;;;;;5003774;28;20302;-69
2020/12/20 02:39:02;;;;;;;45.47;19.37;;;2.90;99.90;;;;;;5030396;28;20210;-68
2020/12/20 02:41:36;;;;;;;43.63;17.73;;;3.00;99.90;;;;;;5044274;28;20316;-68
2020/12/20 02:44:05;;;;;;;47.47;17.93;;;3.00;99.90;;;;;;5046262;28;20210;-68
2020/12/20 02:46:35;;;;;;;46.97;18.80;;;3.00;99.90;;;;;;5005107;28;20260;-68
2020/12/20 02:49:08;;;;;;;45.57;19.10;;;3.00;99.90;;;;;;4986069;28;20210;-68
2020/12/20 02:51:39;;;;;;;52.77;20.37;;;3.00;99.90;;;;;;4978727;28;20208;-68
2020/12/20 02:54:07;;;;;;;46.73;19.53;;;3.00;99.90;;;;;;4999704;28;20667;-68
2020/12/20 02:56:43;;;;;;;44.43;18.43;;;3.00;99.90;;;;;;4968061;28;20215;-68
2020/12/20 02:59:10;;;;;;;43.07;17.77;;;3.10;99.90;;;;;;4964896;28;20219;-68
2020/12/20 03:01:37;;;;;;;47.60;19.37;;;3.10;99.90;;;;;;4932779;28;20220;-68
2020/12/20 03:04:08;;;;;;;48.93;18.77;;;3.10;99.90;;;;;;4944872;29;20209;-68
2020/12/20 03:06:35;;;;;;;44.47;18.97;;;3.10;99.90;;;;;;4911777;29;20219;-68
2020/12/20 03:09:05;;;;;;;41.83;17.23;;;3.10;99.90;;;;;;4892627;29;20231;-68
2020/12/20 03:11:33;;;;;;;41.27;18.47;;;3.10;99.90;;;;;;4911412;29;20643;-69
2020/12/20 03:14:00;;;;;;;42.13;18.93;;;3.20;99.90;;;;;;4921406;29;20398;-68
2020/12/20 03:16:27;;;;;;;47.73;18.47;;;3.20;99.90;;;;;;4917140;29;20225;-68
2020/12/20 03:18:55;;;;;;;59.17;24.10;;;3.20;99.90;;;;;;4906259;29;20788;-68
2020/12/20 03:21:22;;;;;;;62.63;25.27;;;3.20;99.90;;;;;;4899185;29;20281;-68
2020/12/20 03:24:09;;;;;;;54.37;22.50;;;3.20;99.90;;;;;;4915428;29;20694;-68
2020/12/20 03:26:54;;;;;;;54.43;21.30;;;3.20;99.90;;;;;;4899989;29;20315;-68
2020/12/20 03:29:37;;;;;;;48.53;19.47;;;3.10;99.90;;;;;;4948526;28;20205;-68
2020/12/20 03:32:24;;;;;;;47.00;18.27;;;3.10;99.90;;;;;;4917876;29;20224;-68
2020/12/20 03:35:03;;;;;;;48.23;18.37;;;3.10;99.90;;;;;;4911480;29;20273;-69
2020/12/20 03:37:49;;;;;;;50.13;20.43;;;3.20;99.90;;;;;;4912073;29;20209;-69
2020/12/20 03:40:19;;;;;;;46.83;17.77;;;3.10;99.90;;;;;;4949300;29;20235;-69
2020/12/20 03:42:46;;;;;;;42.50;17.17;;;3.10;99.90;;;;;;4890173;29;20711;-68
2020/12/20 03:45:14;;;;;;;47.93;18.30;;;3.10;99.90;;;;;;4878591;29;20216;-68
2020/12/20 03:47:41;;;;;;;46.00;18.23;;;3.10;99.90;;;;;;4910556;29;20215;-68
2020/12/20 03:50:08;;;;;;;44.57;20.20;;;3.10;99.90;;;;;;4907085;29;20206;-68
2020/12/20 03:52:35;;;;;;;54.63;20.80;;;3.10;99.90;;;;;;4910997;29;20214;-69
2020/12/20 03:55:08;;;;;;;48.43;18.80;;;3.10;99.90;;;;;;4907887;29;20734;-69
2020/12/20 03:57:37;;;;;;;49.30;19.23;;;3.10;99.90;;;;;;4896611;29;20218;-68
2020/12/20 04:00:05;;;;;;;51.93;19.13;;;3.10;99.90;;;;;;4908100;29;21083;-68
2020/12/20 04:02:41;;;;;;;56.80;20.97;;;3.10;99.90;;;;;;4896428;29;20680;-69
2020/12/20 04:05:12;;;;;;;53.67;19.53;;;3.00;99.90;;;;;;4918286;29;20218;-68
2020/12/20 04:07:43;;;;;;;47.93;17.80;;;3.00;99.90;;;;;;4934302;29;20245;-68
2020/12/20 04:10:10;;;;;;;45.73;17.87;;;3.00;99.90;;;;;;4919200;29;20290;-68
2020/12/20 04:12:38;;;;;;;50.20;19.90;;;3.00;99.90;;;;;;4914770;29;20211;-68
2020/12/20 04:15:05;;;;;;;55.47;20.27;;;3.00;99.90;;;;;;4943624;29;21163;-68
2020/12/20 04:17:32;;;;;;;49.13;19.27;;;3.00;99.90;;;;;;4972296;28;20269;-68
2020/12/20 04:19:59;;;;;;;44.67;18.57;;;3.00;99.90;;;;;;4974039;28;20343;-68
2020/12/20 04:22:48;;;;;;;43.57;18.57;;;2.90;99.90;;;;;;4971895;28;20303;-68
2020/12/20 04:25:25;;;;;;;55.00;20.80;;;2.90;99.90;;;;;;4968490;28;20600;-68
2020/12/20 04:28:11;;;;;;;60.27;23.43;;;2.80;99.90;;;;;;4969282;28;20259;-68
2020/12/20 04:30:38;;;;;;;54.47;22.37;;;2.80;99.90;;;;;;4969399;28;20208;-68
2020/12/20 04:33:14;;;;;;;51.97;20.37;;;2.70;99.90;;;;;;4971550;28;20204;-68
2020/12/20 04:35:41;;;;;;;52.87;20.70;;;2.60;99.90;;;;;;4966004;28;20668;-68
2020/12/20 04:38:09;;;;;;;53.00;21.50;;;2.60;99.90;;;;;;4962354;28;20593;-68
2020/12/20 04:40:41;;;;;;;54.10;21.07;;;2.60;99.90;;;;;;4966324;28;20245;-68
2020/12/20 04:43:11;;;;;;;50.33;20.07;;;2.60;99.90;;;;;;4965703;28;20252;-68
2020/12/20 04:45:39;;;;;;;44.17;18.60;;;2.60;99.90;;;;;;4969756;28;20286;-68
2020/12/20 04:48:12;;;;;;;41.23;17.10;;;2.60;99.90;;;;;;4959086;28;20617;-68
2020/12/20 04:50:53;;;;;;;50.27;19.40;;;2.60;99.90;;;;;;4946970;28;20304;-68
2020/12/20 04:53:20;;;;;;;45.63;18.10;;;2.50;99.90;;;;;;4960107;28;20209;-68
2020/12/20 04:56:00;;;;;;;52.70;20.13;;;2.50;99.90;;;;;;4945444;28;20217;-68
2020/12/20 04:58:45;;;;;;;48.07;18.13;;;2.50;99.90;;;;;;4946921;29;20753;-68
2020/12/20 05:01:11;;;;;;;47.13;17.93;;;2.50;99.90;;;;;;4943394;28;20712;-68
2020/12/20 05:03:38;;;;;;;46.57;17.97;;;2.50;99.90;;;;;;4990149;28;20208;-68
2020/12/20 05:06:06;;;;;;;46.80;18.30;;;2.50;99.90;;;;;;4952461;29;20223;-68
2020/12/20 05:08:33;;;;;;;44.80;16.63;;;2.50;99.90;;;;;;4964029;28;20233;-68
2020/12/20 05:11:01;;;;;;;40.83;16.73;;;2.50;99.90;;;;;;4970414;28;20790;-68
2020/12/20 05:13:39;;;;;;;42.43;17.40;;;2.50;99.90;;;;;;4995307;28;20298;-68
2020/12/20 05:16:07;;;;;;;52.80;18.50;;;2.60;99.90;;;;;;5007495;28;20281;-68
2020/12/20 05:18:49;;;;;;;58.00;18.87;;;2.60;99.90;;;;;;5009842;28;20223;-68
2020/12/20 05:21:25;;;;;;;61.23;20.23;;;2.60;99.90;;;;;;4975400;28;20215;-68
2020/12/20 05:23:54;;;;;;;52.37;18.27;;;2.60;99.90;;;;;;4976748;28;20309;-68
2020/12/20 05:26:37;;;;;;;65.13;19.87;;;2.60;99.90;;;;;;4978857;28;20221;-68
2020/12/20 05:29:09;;;;;;;60.33;19.57;;;2.60;99.90;;;;;;4964647;28;20205;-68
2020/12/20 05:31:37;;;;;;;53.37;18.77;;;2.60;99.90;;;;;;4965113;28;20213;-68
2020/12/20 05:34:12;;;;;;;62.10;21.60;;;2.60;99.90;;;;;;4944963;29;20206;-68
2020/12/20 05:36:43;;;;;;;55.23;21.57;;;2.60;99.90;;;;;;4944600;28;20240;-68
2020/12/20 05:39:38;;;;;;;52.43;19.77;;;2.60;99.90;;;;;;4977445;28;20233;-68
2020/12/20 05:42:29;;;;;;;57.97;19.97;;;2.60;99.90;;;;;;4935122;28;20220;-68
2020/12/20 05:45:08;;;;;;;50.73;18.97;;;2.60;99.90;;;;;;4914705;29;20582;-69
2020/12/20 05:47:41;;;;;;;42.40;16.93;;;2.60;99.90;;;;;;4929861;29;20228;-68
2020/12/20 05:50:12;;;;;;;47.10;19.00;;;2.60;99.90;;;;;;4931278;29;20311;-68
2020/12/20 05:52:39;;;;;;;61.60;20.77;;;2.50;99.90;;;;;;4982226;28;20279;-68
2020/12/20 05:55:12;;;;;;;53.17;18.93;;;2.60;99.90;;;;;;4937476;29;20755;-68
2020/12/20 05:57:39;;;;;;;56.83;20.47;;;2.50;99.90;;;;;;4951115;29;20241;-68
2020/12/20 06:00:06;;;;;;;53.37;21.47;;;2.50;99.90;;;;;;4957507;28;20637;-68
2020/12/20 06:02:43;;;;;;;51.57;19.00;;;2.40;99.90;;;;;;4979893;28;20703;-68
2020/12/20 06:05:11;;;;;;;51.03;19.43;;;2.50;99.90;;;;;;4998286;28;20211;-68
2020/12/20 06:07:44;;;;;;;49.07;18.43;;;2.50;99.90;;;;;;4993795;28;20699;-68
2020/12/20 06:10:13;;;;;;;61.20;21.43;;;2.50;99.90;;;;;;4996690;28;20292;-68
2020/12/20 06:12:49;;;;;;;54.37;20.60;;;2.50;99.90;;;;;;4977574;28;20306;-68
2020/12/20 06:15:19;;;;;;;54.07;20.03;;;2.50;99.90;;;;;;4979085;28;20223;-68
2020/12/20 06:17:55;;;;;;;62.93;22.07;;;2.50;99.90;;;;;;4982108;28;20250;-68
2020/12/20 06:20:29;;;;;;;51.97;19.53;;;2.50;99.90;;;;;;5005459;28;20607;-68
2020/12/20 06:22:57;;;;;;;48.80;19.37;;;2.40;99.90;;;;;;5002248;28;20298;-68
2020/12/20 06:25:26;;;;;;;50.83;18.67;;;2.40;99.90;;;;;;4971320;28;20223;-68
2020/12/20 06:27:53;;;;;;;52.07;18.87;;;2.40;99.90;;;;;;4969744;28;20216;-68
2020/12/20 06:30:21;;;;;;;49.37;19.40;;;2.30;99.90;;;;;;4967748;28;20751;-68
2020/12/20 06:32:53;;;;;;;44.17;16.63;;;2.30;99.90;;;;;;4994096;28;20612;-68
2020/12/20 06:35:23;;;;;;;50.70;18.87;;;2.30;99.90;;;;;;5008679;28;20215;-68
2020/12/20 06:37:50;;;;;;;52.37;19.83;;;2.30;99.90;;;;;;5012410;28;20217;-68
2020/12/20 06:40:39;;;;;;;49.77;19.13;;;2.20;99.90;;;;;;5031090;28;20235;-68
2020/12/20 06:43:06;;;;;;;56.57;20.40;;;2.20;99.90;;;;;;5026435;28;20198;-68
2020/12/20 06:45:40;;;;;;;45.40;18.23;;;2.20;99.90;;;;;;5046538;28;20247;-68
2020/12/20 06:48:09;;;;;;;44.23;16.23;;;2.20;99.90;;;;;;5033019;28;20240;-69
2020/12/20 06:50:44;;;;;;;44.10;17.93;;;2.20;99.90;;;;;;5039922;28;20371;-68
2020/12/20 06:53:12;;;;;;;48.47;16.77;;;2.20;99.90;;;;;;5052661;28;20319;-67
2020/12/20 06:55:39;;;;;;;48.10;16.97;;;2.20;99.90;;;;;;5052221;28;20304;-68
2020/12/20 06:58:10;;;;;;;49.87;16.90;;;2.20;99.90;;;;;;5008699;28;20214;-68
2020/12/20 07:00:42;;;;;;;52.00;18.23;;;2.30;99.90;;;;;;5007850;28;20277;-68
2020/12/20 07:03:11;;;;;;;52.63;18.53;;;2.30;99.90;;;;;;5013769;28;20741;-68
2020/12/20 07:05:44;;;;;;;66.67;21.40;;;2.30;99.90;;;;;;4998120;28;20213;-67
2020/12/20 07:08:19;;;;;;;54.70;19.10;;;2.40;99.90;;;;;;4996392;28;20215;-67
2020/12/20 07:10:48;;;;;;;71.93;19.97;;;2.40;99.90;;;;;;4952515;28;20240;-68
2020/12/20 07:13:16;;;;;;;72.77;20.93;;;2.40;99.90;;;;;;4984066;28;20200;-67
2020/12/20 07:15:51;;;;;;;68.23;19.63;;;2.40;99.90;;;;;;4984914;28;20557;-67
2020/12/20 07:18:53;;;;;;;78.47;21.87;;;2.40;99.90;;;;;;5011216;28;20214;-68
2020/12/20 07:21:46;;;;;;;63.90;19.20;;;2.10;99.90;;;;;;4965855;28;20235;-68
2020/12/20 07:24:17;;;;;;;74.03;21.17;;;2.50;99.90;;;;;;4968742;28;20208;-68
2020/12/20 07:26:44;;;;;;;54.97;18.80;;;2.40;99.90;;;;;;4965518;28;20204;-68
2020/12/20 07:29:10;;;;;;;61.97;20.37;;;2.50;99.90;;;;;;4966991;28;20240;-68
2020/12/20 07:31:37;;;;;;;58.93;19.70;;;2.50;99.90;;;;;;4967820;28;20216;-68
2020/12/20 07:34:07;;;;;;;57.03;18.93;;;2.50;99.90;;;;;;4968413;28;20212;-68
2020/12/20 07:36:34;;;;;;;54.47;17.77;;;2.50;99.90;;;;;;4944734;29;20205;-67
2020/12/20 07:39:01;;;;;;;53.70;16.83;;;2.50;99.90;;;;;;4954961;28;20256;-68
2020/12/20 07:41:28;;;;;;;48.33;18.20;;;2.60;99.90;;;;;;4964020;28;20534;-68
2020/12/20 07:43:54;;;;;;;45.70;16.27;;;2.50;99.90;;;;;;5009535;28;20211;-68
2020/12/20 07:46:23;;;;;;;47.20;16.67;;;2.50;99.90;;;;;;5025586;28;20217;-68
2020/12/20 07:48:50;;;;;;;50.53;16.33;;;2.60;99.90;;;;;;5017834;28;20250;-68
2020/12/20 07:51:19;;;;;;;66.80;20.67;;;2.60;99.90;;;;;;5024792;28;20256;-68
2020/12/20 07:53:48;;;;;;;71.60;21.70;;;2.60;99.90;;;;;;5025236;28;20529;-68
2020/12/20 07:56:26;;;;;;;60.20;21.10;;;2.60;99.90;;;;;;5063626;28;20208;-67
2020/12/20 07:58:54;;;;;;;51.77;18.77;;;2.50;99.90;;;;;;5074933;28;20213;-68
2020/12/20 08:01:22;;;;;;;51.20;17.80;;;2.50;99.90;;;;;;5030349;28;20309;-67
2020/12/20 08:03:48;;;;;;;44.30;17.10;;;2.50;99.90;;;;;;5037502;28;20598;-68
2020/12/20 08:06:16;;;;;;;51.20;17.83;;;2.60;99.90;;;;;;5036745;28;20210;-68
2020/12/20 08:08:44;;;;;;;51.37;16.43;;;2.60;99.90;;;;;;5035178;28;20707;-68
2020/12/20 08:11:23;;;;;;;54.57;17.30;;;2.70;99.90;;;;;;5037718;28;20225;-68
2020/12/20 08:13:51;;;;;;;48.03;17.93;;;2.80;99.90;;;;;;5034312;28;20590;-68
2020/12/20 08:16:25;;;;;;;44.93;17.23;;;2.80;99.90;;;;;;4998756;28;20234;-68
2020/12/20 08:19:03;;;;;;;44.57;17.27;;;2.80;99.90;;;;;;4996156;28;20333;-68
2020/12/20 08:21:46;;;;;;;39.80;16.17;;;2.90;99.90;;;;;;5004745;28;20211;-68
2020/12/20 08:24:14;;;;;;;48.17;16.33;;;2.90;99.90;;;;;;5014326;28;20210;-68
2020/12/20 08:26:42;;;;;;;41.97;17.63;;;2.90;99.90;;;;;;4991258;28;20203;-68
2020/12/20 08:29:12;;;;;;;44.00;15.83;;;3.00;99.90;;;;;;4971259;28;20209;-68
2020/12/20 08:31:39;;;;;;;43.57;16.20;;;3.00;99.90;;;;;;4961612;28;20328;-68
2020/12/20 08:34:17;;;;;;;39.53;14.57;;;3.00;99.90;;;;;;4989551;28;20236;-68
2020/12/20 08:36:45;;;;;;;45.20;15.20;;;3.10;99.90;;;;;;4990752;28;20211;-68
2020/12/20 08:39:12;;;;;;;42.03;14.07;;;3.20;99.90;;;;;;5008288;28;20681;-68
2020/12/20 08:41:40;;;;;;;47.53;15.23;;;3.20;99.90;;;;;;5030860;28;20608;-69
2020/12/20 08:44:09;;;;;;;31.53;12.93;;;3.20;99.90;;;;;;5029908;28;20217;-68
2020/12/20 08:46:37;;;;;;;45.43;14.70;;;3.30;99.90;;;;;;5029075;28;20207;-68
2020/12/20 08:49:18;;;;;;;44.00;15.30;;;3.30;99.90;;;;;;5029106;28;20613;-68
2020/12/20 08:51:46;;;;;;;37.83;13.87;;;3.40;99.90;;;;;;5029251;28;20213;-68
2020/12/20 08:54:13;;;;;;;50.00;18.77;;;3.40;99.90;;;;;;5028230;28;20214;-68
2020/12/20 08:56:57;;;;;;;43.67;16.63;;;3.40;99.90;;;;;;5032888;28;20206;-68
2020/12/20 08:59:30;;;;;;;45.40;16.03;;;3.40;99.90;;;;;;5049518;28;20775;-68
2020/12/20 09:01:58;;;;;;;43.00;17.23;;;3.40;99.90;;;;;;5049370;28;20220;-69
2020/12/20 09:04:25;;;;;;;36.63;15.10;;;3.40;99.90;;;;;;5050786;28;20212;-68
2020/12/20 09:07:14;;;;;;;35.50;14.23;;;3.50;99.90;;;;;;5013213;28;20215;-68
2020/12/20 09:09:41;;;;;;;29.27;12.80;;;3.50;99.90;;;;;;5045942;28;20213;-68
2020/12/20 09:12:18;;;;;;;36.37;13.67;;;3.60;99.90;;;;;;5050218;28;20214;-68
2020/12/20 09:15:04;;;;;;;33.97;14.90;;;3.60;99.90;;;;;;5047290;28;20209;-68
2020/12/20 09:17:32;;;;;;;35.73;14.40;;;3.70;99.90;;;;;;5049304;28;20340;-68
2020/12/20 09:19:59;;;;;;;32.07;12.83;;;3.70;99.90;;;;;;5047633;28;20283;-68
2020/12/20 09:22:52;;;;;;;34.27;13.77;;;3.80;99.90;;;;;;5046286;28;20229;-69
2020/12/20 09:25:38;;;;;;;28.30;12.40;;;3.90;99.90;;;;;;5049353;28;20246;-68
2020/12/20 09:28:07;;;;;;;28.60;12.33;;;3.90;99.90;;;;;;5007066;28;20262;-68
2020/12/20 09:30:39;;;;;;;29.50;11.67;;;4.00;99.90;;;;;;4998285;28;20627;-68
2020/12/20 09:33:23;;;;;;;26.27;10.97;;;4.10;99.90;;;;;;5010359;28;20710;-68
2020/12/20 09:35:55;;;;;;;29.83;12.60;;;4.10;99.90;;;;;;4969915;28;20549;-68
2020/12/20 09:38:22;;;;;;;26.50;11.90;;;4.20;99.90;;;;;;4993217;28;20218;-68
2020/12/20 09:40:56;;;;;;;32.87;12.47;;;4.20;99.90;;;;;;4986577;28;20256;-68
2020/12/20 09:43:24;;;;;;;27.57;11.33;;;4.30;99.90;;;;;;4982586;28;20323;-69
2020/12/20 09:45:51;;;;;;;24.77;10.63;;;4.40;99.90;;;;;;4974953;28;20319;-68
2020/12/20 09:48:17;;;;;;;24.10;11.53;;;4.40;99.90;;;;;;4982211;28;20214;-69
2020/12/20 09:50:44;;;;;;;27.80;12.13;;;4.40;99.90;;;;;;4977861;28;20743;-68
2020/12/20 09:53:11;;;;;;;25.07;11.83;;;4.50;99.90;;;;;;4962448;28;20650;-68
2020/12/20 09:55:41;;;;;;;28.67;11.97;;;4.50;99.90;;;;;;4956966;28;20206;-68
2020/12/20 09:58:09;;;;;;;27.57;12.13;;;4.50;99.90;;;;;;4970214;28;20202;-68
2020/12/20 10:00:37;;;;;;;28.27;12.47;;;4.60;99.90;;;;;;4981190;28;20233;-69
2020/12/20 10:03:04;;;;;;;28.53;12.67;;;4.60;99.90;;;;;;4994430;28;20223;-68
2020/12/20 10:05:33;;;;;;;27.37;12.03;;;4.70;99.90;;;;;;5011123;28;20203;-70
2020/12/20 10:08:00;;;;;;;26.53;12.67;;;4.90;99.90;;;;;;5013569;28;20240;-68
2020/12/20 10:10:27;;;;;;;28.47;12.40;;;4.90;99.90;;;;;;5009957;28;20517;-68
2020/12/20 10:12:53;;;;;;;25.90;12.37;;;5.00;99.90;;;;;;5013303;28;20204;-68
2020/12/20 10:15:20;;;;;;;36.27;15.47;;;5.10;99.90;;;;;;5009181;28;20294;-68
2020/12/20 10:17:48;;;;;;;33.63;15.10;;;5.10;99.90;;;;;;5013019;28;20312;-68
2020/12/20 10:20:14;;;;;;;34.77;15.03;;;5.10;99.90;;;;;;5027785;28;20689;-68
2020/12/20 10:22:41;;;;;;;30.73;13.60;;;5.10;99.90;;;;;;5033829;28;20262;-68
2020/12/20 10:25:08;;;;;;;34.20;15.00;;;5.10;99.90;;;;;;5049646;28;20226;-68
2020/12/20 10:27:34;;;;;;;32.63;14.10;;;5.10;99.90;;;;;;5028293;28;20206;-68
2020/12/20 10:30:01;;;;;;;32.67;14.70;;;5.20;99.90;;;;;;5023301;28;20232;-69
2020/12/20 10:32:28;;;;;;;38.20;16.77;;;5.20;99.90;;;;;;5029940;28;20214;-68
2020/12/20 10:34:55;;;;;;;34.07;14.97;;;5.20;99.90;;;;;;5028777;28;20271;-68
2020/12/20 10:37:22;;;;;;;35.67;15.83;;;5.30;99.90;;;;;;5030034;28;20591;-68
2020/12/20 10:39:48;;;;;;;37.63;16.70;;;5.20;99.90;;;;;;5029970;28;20623;-68
2020/12/20 10:42:15;;;;;;;33.80;15.87;;;5.20;99.90;;;;;;5032490;28;20272;-68
2020/12/20 10:44:42;;;;;;;33.63;14.83;;;5.20;99.90;;;;;;5011257;28;20235;-68
2020/12/20 10:47:09;;;;;;;34.33;16.33;;;5.20;99.90;;;;;;5008015;28;20211;-70
2020/12/20 10:49:36;;;;;;;34.37;15.37;;;5.30;99.90;;;;;;5008407;28;20215;-70
2020/12/20 10:52:03;;;;;;;29.77;14.13;;;5.30;99.90;;;;;;5013509;28;20279;-69
2020/12/20 10:54:30;;;;;;;31.53;14.37;;;5.40;99.90;;;;;;5013877;28;20601;-68
2020/12/20 10:56:58;;;;;;;31.43;14.90;;;5.40;99.90;;;;;;5018399;28;20199;-68
2020/12/20 10:59:30;;;;;;;30.87;13.77;;;5.40;99.90;;;;;;5003888;28;20310;-68
2020/12/20 11:01:57;;;;;;;27.93;13.77;;;5.50;99.90;;;;;;5066457;28;20310;-68
2020/12/20 11:04:24;;;;;;;36.40;15.60;;;5.50;99.90;;;;;;5075329;28;20206;-68
2020/12/20 11:06:54;;;;;;;28.23;13.63;;;5.60;99.90;;;;;;5075934;28;20732;-69
2020/12/20 11:09:22;;;;;;;28.17;13.43;;;5.60;99.90;;;;;;5076147;28;20226;-69
2020/12/20 11:11:49;;;;;;;29.20;12.93;;;5.60;99.90;;;;;;5066594;28;20701;-69
2020/12/20 11:14:15;;;;;;;29.13;13.20;;;5.60;99.90;;;;;;5077806;28;20292;-69
2020/12/20 11:16:42;;;;;;;26.10;12.00;;;5.60;99.90;;;;;;5056960;28;20305;-69
2020/12/20 11:19:09;;;;;;;27.97;13.53;;;5.70;99.90;;;;;;5047774;28;20321;-69
2020/12/20 11:21:36;;;;;;;24.50;11.40;;;5.70;99.90;;;;;;5047368;28;20259;-69
2020/12/20 11:24:03;;;;;;;23.53;12.43;;;5.70;99.90;;;;;;5048246;28;20203;-69
2020/12/20 11:26:30;;;;;;;25.23;12.47;;;5.70;99.90;;;;;;5036137;28;20676;-69
2020/12/20 11:28:57;;;;;;;25.40;12.23;;;5.70;99.90;;;;;;5025625;28;20216;-69
2020/12/20 11:31:25;;;;;;;26.13;11.53;;;5.70;99.90;;;;;;5010450;28;20228;-69
2020/12/20 11:33:52;;;;;;;25.60;11.60;;;5.80;99.90;;;;;;5009183;28;20217;-69
2020/12/20 11:36:21;;;;;;;30.77;14.33;;;5.80;99.90;;;;;;5025713;28;20255;-69
2020/12/20 11:38:48;;;;;;;39.47;16.00;;;5.90;99.90;;;;;;5027565;28;20308;-69
2020/12/20 11:41:19;;;;;;;47.93;18.47;;;5.90;99.90;;;;;;5064964;28;20320;-69
2020/12/20 11:43:47;;;;;;;43.73;18.53;;;6.00;99.90;;;;;;5006456;28;20213;-69
2020/12/20 11:46:14;;;;;;;45.90;19.07;;;6.00;99.90;;;;;;5007362;28;20240;-69
2020/12/20 11:48:40;;;;;;;43.13;18.80;;;6.00;99.90;;;;;;5007931;28;20200;-69
2020/12/20 11:51:09;;;;;;;41.17;17.93;;;5.90;99.90;;;;;;4969982;28;20218;-69
2020/12/20 11:53:35;;;;;;;47.80;18.27;;;5.90;99.90;;;;;;4978465;28;20473;-69
2020/12/20 11:56:05;;;;;;;46.60;18.13;;;5.90;99.90;;;;;;5008169;28;20580;-69
2020/12/20 11:58:32;;;;;;;38.83;16.20;;;5.90;99.90;;;;;;5006739;28;20220;-69
2020/12/20 12:00:59;;;;;;;42.20;17.77;;;6.00;99.90;;;;;;5007040;28;20230;-69
2020/12/20 12:03:26;;;;;;;41.30;18.13;;;5.90;99.90;;;;;;5007903;28;20214;-69
2020/12/20 12:05:52;;;;;;;39.77;17.87;;;6.00;99.90;;;;;;5007850;28;20244;-69
2020/12/20 12:08:19;;;;;;;37.07;16.20;;;6.00;99.90;;;;;;5007705;28;20263;-69
2020/12/20 12:10:47;;;;;;;33.63;15.50;;;6.00;99.90;;;;;;5008251;28;20681;-69
2020/12/20 12:13:14;;;;;;;29.77;14.13;;;6.00;99.90;;;;;;4973154;28;20206;-69
2020/12/20 12:15:41;;;;;;;27.57;13.30;;;6.00;99.90;;;;;;5020113;28;20588;-69
2020/12/20 12:18:09;;;;;;;27.20;13.83;;;6.00;99.90;;;;;;5007771;28;20295;-69
2020/12/20 12:20:36;;;;;;;29.63;13.77;;;6.10;99.90;;;;;;5018633;28;20312;-69
2020/12/20 12:23:03;;;;;;;35.50;14.73;;;6.00;99.90;;;;;;4996431;28;20252;-69
2020/12/20 12:25:30;;;;;;;32.93;14.10;;;6.00;99.90;;;;;;4998999;28;20709;-69
2020/12/20 12:27:57;;;;;;;26.57;12.43;;;6.00;99.90;;;;;;5022241;28;20214;-69
2020/12/20 12:30:24;;;;;;;31.07;15.40;;;6.00;99.90;;;;;;5028655;28;20691;-69
2020/12/20 12:32:52;;;;;;;34.70;15.77;;;5.90;99.90;;;;;;4991517;28;20678;-69
2020/12/20 12:35:20;;;;;;;52.63;19.97;;;5.90;99.90;;;;;;4991647;28;20678;-69
2020/12/20 12:37:47;;;;;;;60.33;24.50;;;5.90;99.90;;;;;;4974641;28;20293;-69
2020/12/20 12:40:14;;;;;;;57.87;23.17;;;5.90;99.90;;;;;;4974743;28;20642;-69
2020/12/20 12:42:42;;;;;;;52.17;21.20;;;5.80;99.90;;;;;;4991265;28;20205;-70
2020/12/20 12:45:12;;;;;;;54.43;21.97;;;5.80;99.90;;;;;;4988801;28;20214;-69
2020/12/20 12:47:38;;;;;;;50.60;21.17;;;5.80;99.90;;;;;;4991525;28;20229;-70
2020/12/20 12:50:05;;;;;;;59.07;23.80;;;5.80;99.90;;;;;;4995507;28;20342;-70
2020/12/20 12:52:33;;;;;;;59.30;23.13;;;5.80;99.90;;;;;;4987257;28;20218;-70